Time;durP1;ratioP1;P1;durP2;ratioP2;P2;SDS_P1;SDS_P2;PMS_P1;PMS_P2;Temp;Humidity;BMP_temperature;BMP_pressure;BME280_temperature;BME280_humidity;BME280_pressure;Samples;Min_cycle;Max_cycle;Signal;HPM_P1;HPM_P2
2021/09/08 00:00:31;;;;;;;21.80;14.30;;;;;;;7.72;83.33;98358.77;116077;1185;70295;-72
2021/09/08 00:03:02;;;;;;;26.80;15.20;;;;;;;7.71;84.06;98358.05;116032;1182;69136;-74
2021/09/08 00:05:32;;;;;;;24.10;14.70;;;;;;;7.67;84.59;98355.63;116094;1183;68446;-71
2021/09/08 00:08:03;;;;;;;21.50;13.90;;;;;;;7.62;84.59;98354.07;116043;1182;60346;-70
2021/09/08 00:10:34;;;;;;;22.10;14.10;;;;;;;7.56;84.69;98355.98;116113;1182;60282;-74
2021/09/08 00:13:05;;;;;;;25.00;15.20;;;;;;;7.51;84.64;98357.87;116140;1185;72150;-72
2021/09/08 00:15:34;;;;;;;21.90;14.90;;;;;;;7.49;84.77;98358.81;116136;1185;69000;-72
2021/09/08 00:18:04;;;;;;;24.90;15.20;;;;;;;7.47;85.21;98358.04;116100;1184;69041;-71
2021/09/08 00:20:33;;;;;;;26.50;14.90;;;;;;;7.47;85.18;98361.03;116073;1183;60353;-73
2021/09/08 00:23:03;;;;;;;23.30;14.10;;;;;;;7.48;85.28;98364.65;115999;1185;60358;-74
2021/09/08 00:25:33;;;;;;;26.00;14.20;;;;;;;7.48;85.48;98363.79;116063;1182;71384;-75
2021/09/08 00:28:02;;;;;;;22.10;14.60;;;;;;;7.47;85.13;98363.79;116046;1181;68032;-75
2021/09/08 00:30:32;;;;;;;21.30;14.60;;;;;;;7.45;85.09;98363.08;115977;1185;69119;-74
2021/09/08 00:33:02;;;;;;;26.60;14.60;;;;;;;7.44;85.04;98363.64;116129;1182;60347;-74
2021/09/08 00:35:33;;;;;;;;;;;;;;;7.43;84.97;98361.05;116291;1184;60308;-72
2021/09/08 00:38:09;;;;;;;19.00;12.20;;;;;;;7.42;84.47;98363.33;116229;1185;72135;-72
2021/09/08 00:40:39;;;;;;;17.50;11.40;;;;;;;7.42;84.97;98364.52;116239;1184;69158;-74
2021/09/08 00:43:10;;;;;;;22.50;13.50;;;;;;;7.40;84.48;98360.98;116280;1185;68388;-75
2021/09/08 00:45:40;;;;;;;23.30;14.20;;;;;;;7.40;83.96;98361.53;116277;1185;60353;-74
2021/09/08 00:48:13;;;;;;;21.20;13.60;;;;;;;7.38;83.86;98361.22;116253;1183;60353;-74
2021/09/08 00:50:43;;;;;;;20.70;13.90;;;;;;;7.36;84.05;98359.25;116308;1180;71348;-74
2021/09/08 00:53:16;;;;;;;18.30;12.80;;;;;;;7.35;84.71;98359.88;116196;1185;68274;-75
2021/09/08 00:55:49;;;;;;;21.00;12.70;;;;;;;7.34;84.87;98359.16;116260;1183;69224;-75
2021/09/08 00:58:19;;;;;;;21.70;14.20;;;;;;;7.32;85.08;98355.54;116273;1183;60384;-73
2021/09/08 01:00:50;;;;;;;16.40;11.70;;;;;;;7.30;85.41;98355.78;116272;1185;60328;-75
2021/09/08 01:03:20;;;;;;;20.10;13.40;;;;;;;7.27;85.88;98354.70;116246;1185;71397;-74
2021/09/08 01:05:50;;;;;;;19.70;12.00;;;;;;;7.24;85.40;98357.77;116186;1185;67850;-74
2021/09/08 01:08:21;;;;;;;;;;;;;;;7.22;85.77;98358.02;116231;1184;69012;-72
2021/09/08 01:10:51;;;;;;;18.80;11.90;;;;;;;7.19;85.27;98360.86;116230;1179;60361;-74
2021/09/08 01:13:22;;;;;;;17.00;11.00;;;;;;;7.18;85.23;98359.35;116207;1179;60292;-73
2021/09/08 01:15:57;;;;;;;18.90;12.20;;;;;;;7.16;85.31;98357.14;116248;1184;71801;-74
2021/09/08 01:18:27;;;;;;;18.30;12.00;;;;;;;7.15;84.84;98354.54;116239;1184;68944;-75
2021/09/08 01:20:57;;;;;;;19.30;12.30;;;;;;;7.14;85.50;98351.79;116062;1181;68261;-73
2021/09/08 01:23:26;;;;;;;18.50;11.70;;;;;;;7.14;85.52;98350.69;116233;1184;60335;-75
2021/09/08 01:25:56;;;;;;;19.60;11.70;;;;;;;7.13;85.05;98353.37;116108;1184;60374;-75
2021/09/08 01:28:26;;;;;;;20.50;11.20;;;;;;;7.11;84.61;98352.42;116239;1184;70740;-75
2021/09/08 01:30:58;;;;;;;16.90;11.20;;;;;;;7.10;85.14;98352.98;116244;1184;68411;-74
2021/09/08 01:33:28;;;;;;;19.70;12.00;;;;;;;7.10;85.38;98351.96;116144;1179;69248;-75
2021/09/08 01:35:58;;;;;;;19.70;12.60;;;;;;;7.10;85.49;98350.30;116069;1182;60403;-73
2021/09/08 01:38:28;;;;;;;16.80;10.80;;;;;;;7.08;85.19;98347.55;116075;1179;60832;-76
2021/09/08 01:40:58;;;;;;;17.30;12.10;;;;;;;7.08;86.13;98346.23;116071;1184;71420;-75
2021/09/08 01:43:28;;;;;;;;;;;;;;;7.07;85.40;98347.09;116170;1184;69129;-75
2021/09/08 01:45:58;;;;;;;19.40;11.50;;;;;;;7.05;84.96;98340.25;116086;1179;69192;-75
2021/09/08 01:48:28;;;;;;;16.30;11.30;;;;;;;7.03;85.56;98346.08;116089;1185;60342;-75
2021/09/08 01:50:58;;;;;;;20.50;12.60;;;;;;;6.99;85.25;98343.08;116114;1185;60356;-74
2021/09/08 01:53:28;;;;;;;20.60;11.80;;;;;;;6.93;84.29;98340.09;116094;1185;72182;-75
2021/09/08 01:55:59;;;;;;;18.70;11.70;;;;;;;6.90;85.00;98341.11;116127;1184;69280;-74
2021/09/08 01:58:30;;;;;;;18.90;10.90;;;;;;;6.87;84.39;98337.42;116140;1179;69210;-75
2021/09/08 02:01:04;;;;;;;19.40;11.60;;;;;;;6.82;84.34;98339.86;116129;1185;60439;-72
2021/09/08 02:03:37;;;;;;;20.00;12.80;;;;;;;6.80;85.06;98341.65;116141;1180;60368;-75
2021/09/08 02:06:19;;;;;;;22.30;13.40;;;;;;;6.79;84.22;98342.05;116153;1185;72248;-74
2021/09/08 02:08:50;;;;;;;18.40;12.30;;;;;;;6.78;84.85;98335.13;116151;1185;68268;-74
2021/09/08 02:11:19;;;;;;;21.20;13.50;;;;;;;6.79;86.29;98336.55;115986;1185;69133;-75
2021/09/08 02:13:50;;;;;;;20.60;13.70;;;;;;;6.78;85.40;98335.13;116112;1185;60334;-73
2021/09/08 02:16:21;;;;;;;20.80;13.60;;;;;;;6.77;84.67;98335.29;116134;1185;60282;-75
2021/09/08 02:18:52;;;;;;;20.00;13.30;;;;;;;6.79;86.29;98335.60;116065;1185;71363;-73
2021/09/08 02:21:22;;;;;;;20.20;13.00;;;;;;;6.76;85.01;98333.40;116162;1185;69230;-75
2021/09/08 02:23:52;;;;;;;16.90;11.80;;;;;;;6.73;84.57;98335.21;116102;1185;69225;-74
2021/09/08 02:26:22;;;;;;;16.50;11.10;;;;;;;6.70;84.51;98339.54;116131;1184;60353;-74
2021/09/08 02:28:52;;;;;;;;;;;;;;;6.65;83.87;98339.70;116090;1184;60365;-74
2021/09/08 02:31:22;;;;;;;20.00;13.30;;;;;;;6.60;83.91;98340.23;116070;1185;72144;-72
2021/09/08 02:33:51;;;;;;;18.50;12.70;;;;;;;6.57;83.75;98339.91;116095;1185;68338;-74
2021/09/08 02:36:23;;;;;;;19.80;12.90;;;;;;;6.55;85.55;98340.70;116183;1184;68229;-75
2021/09/08 02:38:53;;;;;;;21.40;12.40;;;;;;;6.52;86.67;98340.63;116213;1182;60354;-72
2021/09/08 02:41:24;;;;;;;22.00;13.90;;;;;;;6.51;87.04;98339.29;116225;1179;60357;-72
2021/09/08 02:43:54;;;;;;;24.20;12.90;;;;;;;6.50;85.59;98335.36;116239;1180;71173;-74
2021/09/08 02:46:23;;;;;;;24.80;13.20;;;;;;;6.50;85.71;98339.36;116239;1180;68355;-75
2021/09/08 02:48:53;;;;;;;17.00;11.70;;;;;;;6.50;85.41;98336.94;116200;1185;69213;-74
2021/09/08 02:51:22;;;;;;;18.90;12.60;;;;;;;6.51;86.50;98335.52;116197;1185;60375;-76
2021/09/08 02:53:52;;;;;;;16.00;11.60;;;;;;;6.50;86.91;98336.38;116196;1184;60328;-72
2021/09/08 02:56:21;;;;;;;18.90;12.40;;;;;;;6.47;87.49;98336.37;116219;1185;72104;-74
2021/09/08 02:58:51;;;;;;;16.70;11.30;;;;;;;6.45;87.51;98335.33;116230;1183;69150;-74
2021/09/08 03:01:21;;;;;;;23.30;14.50;;;;;;;6.42;86.24;98337.22;116190;1184;69042;-76
2021/09/08 03:03:51;;;;;;;24.50;15.20;;;;;;;6.44;85.61;98338.71;116153;1183;60339;-75
2021/09/08 03:06:21;;;;;;;22.60;13.50;;;;;;;6.46;86.21;98337.70;116200;1179;60351;-73
2021/09/08 03:08:51;;;;;;;19.90;13.10;;;;;;;6.46;85.85;98338.71;116239;1183;72136;-74
2021/09/08 03:11:21;;;;;;;20.90;12.50;;;;;;;6.45;86.68;98338.48;116038;1185;69124;-74
2021/09/08 03:13:51;;;;;;;17.10;10.80;;;;;;;6.45;86.91;98341.08;116205;1184;69441;-72
2021/09/08 03:16:21;;;;;;;17.20;11.60;;;;;;;6.45;86.43;98342.65;116188;1184;60343;-72
2021/09/08 03:18:50;;;;;;;20.00;10.60;;;;;;;6.44;86.13;98343.75;116230;1183;60432;-74
2021/09/08 03:21:20;;;;;;;18.90;12.20;;;;;;;6.43;86.79;98350.98;116185;1184;71192;-74
2021/09/08 03:23:51;;;;;;;18.50;12.30;;;;;;;6.43;86.80;98355.07;116186;1180;68387;-74
2021/09/08 03:26:20;;;;;;;17.30;10.90;;;;;;;6.44;86.26;98359.31;116046;1185;69206;-75
2021/09/08 03:28:50;;;;;;;17.20;10.70;;;;;;;6.42;85.72;98354.20;116170;1184;60391;-73
2021/09/08 03:31:19;;;;;;;16.10;11.00;;;;;;;6.40;85.62;98355.45;116092;1182;60365;-74
2021/09/08 03:33:49;;;;;;;13.40;9.80;;;;;;;6.39;85.55;98360.33;116214;1183;72139;-72
2021/09/08 03:36:18;;;;;;;17.60;11.60;;;;;;;6.41;86.62;98362.77;116183;1180;69238;-74
2021/09/08 03:38:48;;;;;;;17.70;11.80;;;;;;;6.41;85.61;98362.84;116126;1182;68441;-72
2021/09/08 03:41:17;;;;;;;16.90;11.60;;;;;;;6.41;85.06;98365.13;116123;1178;60307;-71
2021/09/08 03:43:47;;;;;;;18.10;10.60;;;;;;;6.42;85.64;98365.76;116223;1179;60338;-74
2021/09/08 03:46:17;;;;;;;14.50;10.50;;;;;;;6.42;85.88;98371.19;116194;1184;71322;-73
2021/09/08 03:48:46;;;;;;;15.70;11.10;;;;;;;6.40;85.28;98366.38;116192;1183;69639;-72
2021/09/08 03:51:16;;;;;;;17.60;11.30;;;;;;;6.37;85.02;98367.80;116165;1184;69190;-75
2021/09/08 03:53:45;;;;;;;17.40;10.20;;;;;;;6.35;84.92;98368.19;116134;1179;60345;-74
2021/09/08 03:56:15;;;;;;;16.50;10.30;;;;;;;6.34;84.57;98373.21;116128;1182;60358;-74
2021/09/08 03:58:44;;;;;;;16.10;10.20;;;;;;;6.33;84.78;98370.39;116147;1184;71970;-73
2021/09/08 04:01:13;;;;;;;17.00;12.20;;;;;;;6.34;85.48;98370.23;116099;1184;68711;-73
2021/09/08 04:03:43;;;;;;;19.80;12.70;;;;;;;6.39;84.72;98370.95;116009;1184;69220;-74
2021/09/08 04:06:14;;;;;;;19.90;12.50;;;;;;;6.44;85.34;98372.83;116166;1184;60311;-74
2021/09/08 04:08:43;;;;;;;17.20;11.40;;;;;;;6.47;85.45;98372.86;116185;1180;60782;-74
2021/09/08 04:11:14;;;;;;;18.30;12.10;;;;;;;6.53;85.93;98372.46;116026;1184;72097;-74
2021/09/08 04:13:43;;;;;;;16.90;11.10;;;;;;;6.64;85.66;98372.49;116087;1184;69152;-74
2021/09/08 04:16:12;;;;;;;16.70;10.30;;;;;;;6.78;85.65;98373.27;116061;1179;69665;-74
2021/09/08 04:18:42;;;;;;;16.70;9.70;;;;;;;6.90;85.76;98374.79;115947;1184;60756;-71
2021/09/08 04:21:11;;;;;;;13.50;9.20;;;;;;;7.05;85.46;98381.55;116106;1184;60259;-73
2021/09/08 04:23:40;;;;;;;15.10;9.90;;;;;;;7.17;85.52;98380.05;116106;1179;71235;-71
2021/09/08 04:26:10;;;;;;;16.00;9.40;;;;;;;7.40;85.54;98383.57;116217;1180;69136;-73
2021/09/08 04:28:39;;;;;;;16.20;9.40;;;;;;;7.58;85.14;98384.95;116164;1183;68394;-74
2021/09/08 04:31:09;;;;;;;13.20;8.40;;;;;;;7.83;84.81;98389.92;116181;1184;60356;-74
2021/09/08 04:33:39;;;;;;;12.90;8.00;;;;;;;8.15;84.51;98386.65;116134;1181;60746;-73
2021/09/08 04:36:08;;;;;;;16.30;8.60;;;;;;;8.46;82.03;98387.47;116015;1184;72094;-74
2021/09/08 04:38:38;;;;;;;12.60;8.50;;;;;;;8.60;78.18;98392.75;116221;1184;69063;-73
2021/09/08 04:41:08;;;;;;;13.90;8.40;;;;;;;8.70;78.87;98390.40;116159;1180;68993;-75
2021/09/08 04:43:37;;;;;;;22.40;8.50;;;;;;;8.74;79.14;98395.50;116083;1182;60317;-72
2021/09/08 04:46:06;;;;;;;13.30;8.40;;;;;;;8.78;76.87;98395.94;116209;1182;60418;-72
2021/09/08 04:48:36;;;;;;;12.40;7.60;;;;;;;8.97;75.63;98397.63;116098;1181;72386;-71
2021/09/08 04:51:06;;;;;;;16.80;8.20;;;;;;;9.25;74.70;98392.34;116223;1183;69151;-74
2021/09/08 04:53:36;;;;;;;15.90;6.90;;;;;;;9.46;73.77;98393.11;116150;1179;68244;-69
2021/09/08 04:56:05;;;;;;;17.60;7.80;;;;;;;9.59;71.85;98392.74;116007;1183;60323;-75
2021/09/08 04:58:34;;;;;;;20.30;8.10;;;;;;;9.88;71.91;98390.77;116186;1180;60279;-74
2021/09/08 05:01:04;;;;;;;16.70;7.40;;;;;;;10.09;70.26;98395.13;116184;1184;72142;-74
2021/09/08 05:03:34;;;;;;;16.30;7.30;;;;;;;10.31;69.86;98393.91;116086;1183;69114;-76
2021/09/08 05:06:04;;;;;;;13.50;7.50;;;;;;;10.60;72.03;98392.97;116201;1183;68627;-71
2021/09/08 05:08:33;;;;;;;20.60;8.30;;;;;;;10.85;71.65;98396.88;116187;1179;60330;-74
2021/09/08 05:11:02;;;;;;;19.70;9.50;;;;;;;11.21;71.58;98401.48;116219;1183;60407;-74
2021/09/08 05:13:31;;;;;;;29.90;10.80;;;;;;;11.56;71.15;98406.34;116186;1183;72146;-76
2021/09/08 05:16:00;;;;;;;21.30;10.60;;;;;;;11.80;69.89;98411.64;116200;1179;69301;-72
2021/09/08 05:18:29;;;;;;;30.90;10.30;;;;;;;11.97;67.86;98408.87;116175;1184;68282;-72
2021/09/08 05:20:59;;;;;;;23.60;8.90;;;;;;;12.13;67.28;98406.96;116077;1185;60341;-74
2021/09/08 05:23:28;;;;;;;21.50;8.60;;;;;;;12.31;65.67;98408.27;116083;1181;60335;-76
2021/09/08 05:25:58;;;;;;;16.10;8.40;;;;;;;12.63;66.82;98407.51;116176;1183;72502;-74
2021/09/08 05:28:27;;;;;;;19.10;8.60;;;;;;;12.90;66.26;98406.66;116175;1179;69263;-75
2021/09/08 05:30:56;;;;;;;16.70;8.70;;;;;;;13.01;64.81;98404.16;116151;1183;68610;-72
2021/09/08 05:33:25;;;;;;;19.00;8.80;;;;;;;13.15;64.42;98407.69;116107;1182;60353;-75
2021/09/08 05:35:54;;;;;;;14.70;8.80;;;;;;;13.39;65.71;98407.80;116101;1182;60301;-75
2021/09/08 05:38:23;;;;;;;19.80;9.00;;;;;;;13.68;63.21;98405.88;116058;1180;72358;-71
2021/09/08 05:40:53;;;;;;;18.50;8.90;;;;;;;13.91;61.86;98401.86;115945;1185;68309;-74
2021/09/08 05:43:22;;;;;;;25.50;9.60;;;;;;;13.96;61.22;98398.29;116053;1184;69085;-77
2021/09/08 05:45:51;;;;;;;24.80;9.00;;;;;;;14.09;61.18;98397.36;116031;1184;60269;-76
2021/09/08 05:48:20;;;;;;;12.30;7.90;;;;;;;14.13;61.27;98396.38;116070;1185;60330;-75
2021/09/08 05:50:49;;;;;;;16.90;8.10;;;;;;;14.06;61.31;98394.27;115990;1180;72928;-73
2021/09/08 05:53:18;;;;;;;16.30;8.70;;;;;;;14.10;61.64;98393.29;116066;1185;68291;-74
2021/09/08 05:55:47;;;;;;;13.30;8.40;;;;;;;14.19;61.96;98397.07;116041;1185;68248;-74
2021/09/08 05:58:16;;;;;;;14.60;8.00;;;;;;;14.66;61.14;98395.59;116032;1185;60353;-75
2021/09/08 06:00:45;;;;;;;17.40;8.00;;;;;;;15.03;59.75;98392.91;116024;1181;60320;-73
2021/09/08 06:03:15;;;;;;;16.40;8.30;;;;;;;15.45;59.29;98392.82;116004;1180;71959;-76
2021/09/08 06:05:44;;;;;;;17.30;8.30;;;;;;;15.89;58.70;98392.70;115919;1185;68476;-74
2021/09/08 06:08:13;;;;;;;21.00;8.70;;;;;;;16.20;57.51;98391.73;115886;1185;68376;-76
2021/09/08 06:10:45;;;;;;;18.50;8.80;;;;;;;16.72;57.61;98389.39;116038;1181;60359;-75
2021/09/08 06:13:14;;;;;;;16.10;9.00;;;;;;;17.12;55.50;98387.27;116049;1183;60328;-72
2021/09/08 06:15:43;;;;;;;14.30;9.10;;;;;;;17.48;55.58;98384.69;116080;1181;72171;-71
2021/09/08 06:18:13;;;;;;;19.70;8.60;;;;;;;17.67;54.55;98384.26;116035;1185;69088;-74
2021/09/08 06:20:42;;;;;;;29.50;9.60;;;;;;;17.85;53.52;98384.66;116034;1184;68783;-71
2021/09/08 06:23:13;;;;;;;21.70;8.80;;;;;;;17.80;53.27;98387.77;116028;1182;60364;-71
2021/09/08 06:25:42;;;;;;;18.40;9.20;;;;;;;17.61;53.05;98385.14;116023;1183;60335;-73
2021/09/08 06:28:12;;;;;;;11.40;7.10;;;;;;;17.62;53.54;98384.17;115963;1185;71461;-72
2021/09/08 06:30:41;;;;;;;15.10;7.90;;;;;;;17.73;53.31;98389.47;115998;1185;68244;-73
2021/09/08 06:33:10;;;;;;;16.00;7.50;;;;;;;17.65;52.84;98390.90;116011;1185;69352;-72
2021/09/08 06:35:39;;;;;;;15.30;7.70;;;;;;;17.80;52.80;98386.06;116128;1183;60360;-72
2021/09/08 06:38:08;;;;;;;14.70;7.60;;;;;;;17.65;53.23;98383.46;116183;1182;60354;-73
2021/09/08 06:40:37;;;;;;;13.30;7.80;;;;;;;17.81;53.33;98381.94;116126;1184;71985;-72
2021/09/08 06:43:07;;;;;;;14.80;6.80;;;;;;;18.19;51.92;98380.04;116041;1184;68379;-72
2021/09/08 06:45:36;;;;;;;12.40;7.50;;;;;;;18.43;51.32;98382.11;116129;1184;69210;-75
2021/09/08 06:48:05;;;;;;;13.00;6.60;;;;;;;18.68;49.97;98381.08;116043;1179;60402;-73
2021/09/08 06:50:34;;;;;;;12.20;5.90;;;;;;;18.94;49.74;98380.23;116000;1179;60375;-74
2021/09/08 06:53:03;;;;;;;13.10;6.30;;;;;;;18.89;49.01;98383.54;116029;1184;72010;-74
2021/09/08 06:55:33;;;;;;;13.80;5.90;;;;;;;19.20;48.97;98383.55;115958;1180;69385;-76
2021/09/08 06:58:02;;;;;;;12.70;6.10;;;;;;;19.47;48.64;98388.02;116091;1179;68466;-77
2021/09/08 07:00:32;;;;;;;12.20;6.50;;;;;;;19.46;48.07;98388.93;116027;1180;60310;-73
2021/09/08 07:03:01;;;;;;;12.50;6.00;;;;;;;19.68;48.11;98391.01;116106;1180;60805;-74
2021/09/08 07:05:31;;;;;;;14.70;6.20;;;;;;;20.21;46.73;98393.46;116154;1179;71247;-74
2021/09/08 07:08:01;;;;;;;9.70;5.90;;;;;;;20.34;45.53;98392.30;116131;1184;69044;-74
2021/09/08 07:10:31;;;;;;;10.70;5.90;;;;;;;20.49;46.01;98393.21;116120;1183;68987;-74
2021/09/08 07:12:59;;;;;;;12.90;5.70;;;;;;;20.78;45.30;98392.00;116074;1184;60362;-72
2021/09/08 07:15:28;;;;;;;10.60;6.00;;;;;;;20.75;45.34;98392.65;116178;1179;60785;-72
2021/09/08 07:17:58;;;;;;;11.00;6.00;;;;;;;21.17;45.20;98392.81;116160;1184;72251;-76
2021/09/08 07:20:27;;;;;;;8.70;5.70;;;;;;;21.64;44.37;98389.75;116176;1179;69340;-73
2021/09/08 07:22:56;;;;;;;9.80;5.60;;;;;;;21.96;42.83;98388.62;116126;1184;69065;-73
2021/09/08 07:25:26;;;;;;;10.80;5.60;;;;;;;21.94;42.09;98388.55;116127;1182;60352;-72
2021/09/08 07:27:55;;;;;;;12.20;5.90;;;;;;;22.23;41.21;98391.51;116162;1184;60359;-71
2021/09/08 07:30:24;;;;;;;10.20;5.40;;;;;;;22.17;40.71;98390.67;116124;1184;71391;-72
2021/09/08 07:32:54;;;;;;;8.10;5.20;;;;;;;21.66;42.07;98397.52;116202;1179;68606;-77
2021/09/08 07:35:23;;;;;;;9.30;5.70;;;;;;;22.04;41.90;98395.80;116119;1184;68486;-74
2021/09/08 07:37:52;;;;;;;9.70;5.60;;;;;;;21.90;41.61;98403.25;116140;1183;60355;-79
2021/09/08 07:40:21;;;;;;;8.50;5.40;;;;;;;21.98;41.72;98401.56;116139;1184;60307;-78
2021/09/08 07:42:51;;;;;;;13.60;6.20;;;;;;;22.10;41.71;98403.16;116130;1184;72351;-78
2021/09/08 07:45:21;;;;;;;11.80;6.00;;;;;;;22.32;40.82;98401.77;116148;1180;69423;-73
2021/09/08 07:47:50;;;;;;;10.80;6.30;;;;;;;22.57;40.44;98403.51;116136;1180;68563;-75
2021/09/08 07:50:19;;;;;;;9.80;5.60;;;;;;;21.93;41.25;98400.33;116146;1183;60359;-79
2021/09/08 07:52:48;;;;;;;9.80;5.70;;;;;;;22.28;40.65;98400.70;116158;1180;60343;-79
2021/09/08 07:55:17;;;;;;;11.50;6.30;;;;;;;22.00;41.02;98403.27;116159;1183;72138;-78
2021/09/08 07:57:47;;;;;;;9.90;5.40;;;;;;;21.59;41.91;98398.86;116029;1184;68533;-77
2021/09/08 08:00:17;;;;;;;9.80;5.40;;;;;;;21.90;42.01;98402.13;116228;1183;69233;-80
2021/09/08 08:02:51;;;;;;;11.60;6.00;;;;;;;22.57;40.60;98396.11;116135;1181;60418;-80
2021/09/08 08:05:20;;;;;;;9.60;5.70;;;;;;;23.18;39.63;98392.95;116148;1184;60346;-79
2021/09/08 08:07:49;;;;;;;10.60;6.00;;;;;;;23.38;38.53;98391.34;116135;1184;71408;-78
2021/09/08 08:10:19;;;;;;;13.30;5.50;;;;;;;23.11;38.53;98389.77;116147;1184;68215;-79
2021/09/08 08:12:48;;;;;;;8.50;5.50;;;;;;;23.36;38.39;98388.50;116026;1184;68533;-79
2021/09/08 08:15:17;;;;;;;13.50;5.70;;;;;;;23.95;37.95;98389.48;116137;1181;60301;-80
2021/09/08 08:17:46;;;;;;;10.00;5.60;;;;;;;24.21;36.68;98389.06;116156;1179;60374;-81
2021/09/08 08:20:17;;;;;;;10.50;5.80;;;;;;;24.44;36.52;98387.80;116147;1184;72187;-79
2021/09/08 08:22:47;;;;;;;10.30;5.60;;;;;;;24.93;35.75;98390.68;116202;1183;68519;-81
2021/09/08 08:25:18;;;;;;;;;;;;;;;24.22;36.69;98389.38;116168;1184;69054;-81
2021/09/08 08:27:48;;;;;;;12.30;6.20;;;;;;;24.92;35.33;98391.41;116152;1183;60327;-79
2021/09/08 08:30:17;;;;;;;9.50;6.30;;;;;;;24.53;35.34;98388.80;116160;1182;60368;-81
2021/09/08 08:32:46;;;;;;;12.80;6.00;;;;;;;24.57;35.78;98391.63;116156;1180;71372;-81
2021/09/08 08:35:16;;;;;;;9.20;5.40;;;;;;;24.74;34.91;98389.02;116165;1184;68590;-78
2021/09/08 08:37:50;;;;;;;12.70;5.40;;;;;;;25.03;34.86;98388.27;116155;1180;68466;-78
2021/09/08 08:40:21;;;;;;;9.40;5.70;;;;;;;25.44;33.84;98391.77;116119;1182;60329;-81
2021/09/08 08:42:51;;;;;;;6.80;4.30;;;;;;;25.89;33.30;98387.76;116166;1181;60342;-81
2021/09/08 08:45:20;;;;;;;7.70;4.90;;;;;;;26.20;32.61;98390.34;116197;1180;72216;-81
2021/09/08 08:47:49;;;;;;;9.60;5.10;;;;;;;26.71;32.52;98388.25;116186;1184;69859;-80
2021/09/08 08:50:18;;;;;;;8.70;5.10;;;;;;;26.82;32.10;98385.77;116084;1184;69368;-80
2021/09/08 08:52:47;;;;;;;9.30;5.50;;;;;;;26.68;31.20;98382.17;116139;1184;60321;-81
2021/09/08 08:55:17;;;;;;;7.90;5.30;;;;;;;26.84;31.17;98382.88;116152;1184;60362;-81
2021/09/08 08:57:48;;;;;;;8.80;5.40;;;;;;;27.09;30.91;98382.68;116152;1179;71973;-80
2021/09/08 09:00:19;;;;;;;9.70;4.90;;;;;;;26.58;31.51;98379.86;116168;1179;68747;-75
2021/09/08 09:02:51;;;;;;;9.80;4.80;;;;;;;26.89;30.64;98378.77;116211;1183;69357;-81
2021/09/08 09:05:37;;;;;;;8.50;4.40;;;;;;;27.19;32.35;98374.98;116167;1181;60350;-77
2021/09/08 09:08:09;;;;;;;9.00;4.80;;;;;;;27.88;29.97;98371.25;116140;1180;60356;-80
2021/09/08 09:10:39;;;;;;;8.40;5.10;;;;;;;27.99;29.85;98366.02;116098;1182;72802;-79
2021/09/08 09:13:09;;;;;;;7.80;5.00;;;;;;;28.19;29.31;98363.82;116198;1180;68920;-79
2021/09/08 09:15:38;;;;;;;8.00;4.80;;;;;;;27.94;29.15;98361.35;116200;1183;68274;-80
2021/09/08 09:18:09;;;;;;;8.30;5.00;;;;;;;27.87;28.36;98355.59;116155;1182;60356;-78
2021/09/08 09:20:42;;;;;;;9.50;5.00;;;;;;;28.12;28.46;98352.13;115947;1179;60411;-82
2021/09/08 09:23:12;;;;;;;14.60;5.30;;;;;;;28.71;28.37;98347.33;116122;1183;71650;-78
2021/09/08 09:25:41;;;;;;;12.00;5.00;;;;;;;28.99;27.98;98346.41;116070;1184;70306;-81
2021/09/08 09:28:10;;;;;;;6.40;4.40;;;;;;;28.90;27.51;98339.36;116167;1183;68509;-82
2021/09/08 09:30:41;;;;;;;6.60;4.30;;;;;;;29.06;25.59;98335.35;116159;1180;60286;-76
2021/09/08 09:33:30;;;;;;;11.60;4.80;;;;;;;28.53;27.16;98331.08;116198;1183;60326;-76
2021/09/08 09:36:15;;;;;;;8.10;4.50;;;;;;;29.03;26.09;98328.88;116124;1180;71221;-81
2021/09/08 09:38:45;;;;;;;7.70;4.60;;;;;;;28.74;25.77;98328.96;116183;1179;69322;-73
2021/09/08 09:41:21;;;;;;;8.60;4.40;;;;;;;28.70;25.77;98321.27;116199;1183;68931;-74
2021/09/08 09:43:50;;;;;;;9.90;4.40;;;;;;;28.27;26.68;98318.27;116172;1183;60352;-73
2021/09/08 09:46:19;;;;;;;8.20;4.50;;;;;;;28.75;25.33;98314.36;116210;1178;60336;-78
2021/09/08 09:48:50;;;;;;;8.90;4.80;;;;;;;29.62;24.76;98313.17;116089;1182;72192;-74
2021/09/08 09:51:18;;;;;;;8.30;4.60;;;;;;;30.07;24.39;98313.10;116092;1181;68324;-72
2021/09/08 09:53:47;;;;;;;8.30;4.50;;;;;;;30.10;23.34;98311.36;116186;1184;68807;-78
2021/09/08 09:56:17;;;;;;;9.70;5.00;;;;;;;30.55;22.94;98310.48;116096;1182;60413;-77
2021/09/08 09:58:47;;;;;;;9.90;4.60;;;;;;;30.65;23.29;98304.70;116166;1180;60349;-71
2021/09/08 10:01:18;;;;;;;9.20;4.60;;;;;;;31.23;23.28;98304.30;116205;1180;71640;-79
2021/09/08 10:03:47;;;;;;;6.50;4.60;;;;;;;31.57;22.07;98300.30;116211;1180;69576;-72
2021/09/08 10:06:18;;;;;;;7.90;4.30;;;;;;;31.10;22.15;98293.35;116183;1183;69051;-77
2021/09/08 10:08:50;;;;;;;8.10;4.60;;;;;;;31.01;23.16;98289.64;116011;1184;60289;-71
2021/09/08 10:11:33;;;;;;;8.80;5.00;;;;;;;31.60;22.23;98286.61;116166;1183;60399;-76
2021/09/08 10:14:07;;;;;;;8.20;5.00;;;;;;;31.64;22.87;98286.20;116202;1183;71997;-75
2021/09/08 10:16:36;;;;;;;7.70;4.60;;;;;;;32.16;22.27;98284.19;116209;1183;69384;-73
2021/09/08 10:19:06;;;;;;;;;;;;;;;32.48;21.77;98278.98;116164;1180;68530;-73
2021/09/08 10:21:36;;;;;;;12.60;5.30;;;;;;;32.70;21.06;98271.88;116230;1183;60400;-77
2021/09/08 10:24:05;;;;;;;7.60;4.70;;;;;;;32.93;20.50;98272.98;116230;1182;60375;-79
2021/09/08 10:26:35;;;;;;;12.80;5.40;;;;;;;33.27;20.02;98274.61;116221;1179;72810;-73
2021/09/08 10:29:06;;;;;;;9.30;4.80;;;;;;;33.21;19.76;98266.93;116195;1184;69180;-78
2021/09/08 10:31:48;;;;;;;8.90;4.30;;;;;;;33.37;19.86;98265.62;116198;1184;69388;-74
2021/09/08 10:34:19;;;;;;;7.60;4.30;;;;;;;32.73;19.95;98264.58;116218;1182;60378;-75
2021/09/08 10:36:49;;;;;;;6.30;4.20;;;;;;;33.04;18.85;98261.98;116194;1184;60442;-78
2021/09/08 10:39:20;;;;;;;6.30;3.90;;;;;;;33.66;18.73;98260.41;116180;1179;71480;-75
2021/09/08 10:41:53;;;;;;;8.10;4.30;;;;;;;33.55;19.06;98259.30;116222;1182;68537;-73
2021/09/08 10:44:43;;;;;;;7.40;4.30;;;;;;;33.43;17.54;98256.27;116205;1184;69216;-76
2021/09/08 10:47:15;;;;;;;6.90;4.10;;;;;;;34.09;18.08;98254.39;116194;1184;60360;-74
2021/09/08 10:49:47;;;;;;;6.60;3.80;;;;;;;33.93;17.55;98257.79;116228;1183;60362;-78
2021/09/08 10:52:35;;;;;;;6.20;4.40;;;;;;;34.01;18.19;98256.20;116182;1184;72249;-79
2021/09/08 10:55:05;;;;;;;5.80;4.20;;;;;;;34.08;18.30;98259.20;116144;1180;69016;-75
2021/09/08 10:57:41;;;;;;;5.40;3.90;;;;;;;34.03;18.02;98258.13;116173;1183;68258;-77
2021/09/08 11:00:34;;;;;;;8.40;4.20;;;;;;;34.47;18.61;98253.80;116169;1183;60356;-81
2021/09/08 11:03:07;;;;;;;6.30;3.80;;;;;;;34.98;18.40;98254.95;116162;1182;60328;-82
2021/09/08 11:05:49;;;;;;;6.40;4.40;;;;;;;35.02;17.21;98249.27;116048;1184;72041;-74
2021/09/08 11:08:32;;;;;;;6.40;4.30;;;;;;;35.23;17.01;98251.73;116129;1183;69128;-76
2021/09/08 11:11:07;;;;;;;6.10;4.10;;;;;;;34.62;17.53;98251.27;116041;1181;68240;-73
2021/09/08 11:13:37;;;;;;;8.80;4.60;;;;;;;34.76;17.83;98243.77;116178;1182;60861;-78
2021/09/08 11:16:26;;;;;;;8.60;4.40;;;;;;;34.27;18.14;98240.59;116223;1184;60320;-75
2021/09/08 11:18:59;;;;;;;6.70;4.00;;;;;;;34.04;18.18;98242.45;116186;1179;71689;-76
2021/09/08 11:21:31;;;;;;;7.70;4.30;;;;;;;33.66;18.45;98236.40;116158;1184;68240;-81
2021/09/08 11:24:04;;;;;;;7.50;4.10;;;;;;;34.45;17.46;98233.17;116199;1184;69247;-76
2021/09/08 11:26:36;;;;;;;7.50;4.10;;;;;;;34.52;17.24;98228.80;116233;1179;60388;-81
2021/09/08 11:29:08;;;;;;;6.60;3.90;;;;;;;34.41;18.01;98226.60;116283;1179;60290;-80
2021/09/08 11:31:42;;;;;;;10.20;4.20;;;;;;;33.88;18.83;98228.66;116267;1183;72257;-76
2021/09/08 11:34:23;;;;;;;7.30;4.20;;;;;;;34.50;18.39;98226.19;116231;1179;68994;-76
2021/09/08 11:36:57;;;;;;;6.30;4.10;;;;;;;34.60;17.83;98221.47;116209;1183;69704;-78